createdAt,value
2019-04-26T00:04:54.627Z,1.17
2019-04-26T00:09:50.743Z,1.33
2019-04-26T00:15:05.139Z,1.70
2019-04-26T00:20:01.663Z,1.13
2019-04-26T00:24:57.875Z,1.30
2019-04-26T00:29:53.792Z,1.57
2019-04-26T00:34:49.712Z,1.57
2019-04-26T00:39:45.626Z,1.87
2019-04-26T00:44:41.954Z,2.47
2019-04-26T00:49:43.878Z,2.43
2019-04-26T00:54:35.892Z,1.80
2019-04-26T00:59:32.208Z,1.27
2019-04-26T01:04:28.226Z,2.17
2019-04-26T01:09:24.444Z,1.90
2019-04-26T01:14:20.354Z,1.40
2019-04-26T01:19:18.557Z,1.83
2019-04-26T01:24:16.885Z,1.73
2019-04-26T01:29:15.246Z,1.63
2019-04-26T01:34:11.385Z,1.73
2019-04-26T01:39:09.403Z,1.80
2019-04-26T01:44:10.524Z,1.60
2019-04-26T01:49:08.443Z,1.83
2019-04-26T01:54:04.961Z,2.47
2019-04-26T01:59:01.055Z,1.97
2019-04-26T02:03:57.108Z,2.00
2019-04-26T02:08:53.136Z,1.97
2019-04-26T02:13:49.247Z,1.87
2019-04-26T02:18:45.534Z,2.20
2019-04-26T02:23:46.126Z,2.50
2019-04-26T02:28:42.055Z,2.70
2019-04-26T02:33:38.079Z,2.60
2019-04-26T02:38:34.793Z,2.67
2019-04-26T02:43:33.878Z,3.30
2019-04-26T02:48:38.025Z,3.20
2019-04-26T02:53:54.695Z,4.83
2019-04-26T02:59:00.289Z,4.40
2019-04-26T03:03:57.418Z,6.00
2019-04-26T03:08:55.942Z,7.17
2019-04-26T03:14:01.243Z,9.50
2019-04-26T03:19:05.586Z,9.20
2019-04-26T03:24:08.093Z,7.10
2019-04-26T03:29:16.641Z,6.30
2019-04-26T03:34:21.170Z,7.40
2019-04-26T03:39:29.017Z,6.13
2019-04-26T03:44:44.172Z,7.00
2019-04-26T03:49:55.848Z,8.17
2019-04-26T03:55:01.601Z,9.23
2019-04-26T04:00:08.458Z,9.70
2019-04-26T04:05:12.857Z,11.37
2019-04-26T04:10:15.158Z,10.17
2019-04-26T04:15:15.192Z,10.30
2019-04-26T04:20:44.531Z,10.70
2019-04-26T04:25:49.241Z,10.77
2019-04-26T04:31:01.327Z,12.37
2019-04-26T04:36:00.884Z,12.10
2019-04-26T04:41:15.287Z,15.90
2019-04-26T04:46:49.201Z,15.97
2019-04-26T04:51:56.333Z,18.03
2019-04-26T04:56:56.069Z,18.67
2019-04-26T05:02:06.699Z,19.23
2019-04-26T05:07:23.346Z,19.30
2019-04-26T05:12:41.047Z,20.50
2019-04-26T05:18:10.064Z,19.00
2019-04-26T05:23:18.366Z,20.20
2019-04-26T05:28:36.730Z,19.97
2019-04-26T05:33:36.944Z,19.30
2019-04-26T05:38:39.719Z,19.67
2019-04-26T05:43:50.225Z,20.67
2019-04-26T05:49:15.882Z,19.20
2019-04-26T05:54:54.016Z,19.47
2019-04-26T06:00:24.321Z,18.77
2019-04-26T06:05:38.423Z,18.37
2019-04-26T06:10:38.137Z,16.90
2019-04-26T06:16:02.382Z,18.90
2019-04-26T06:21:03.407Z,18.17
2019-04-26T06:26:35.737Z,16.50
2019-04-26T06:31:35.481Z,16.63
2019-04-26T06:36:36.745Z,15.93
2019-04-26T06:42:02.880Z,16.53
2019-04-26T06:47:22.437Z,13.27
2019-04-26T06:52:21.676Z,14.23
2019-04-26T06:57:32.567Z,13.00
2019-04-26T07:02:52.350Z,12.00
2019-04-26T07:08:07.453Z,11.87
2019-04-26T07:13:31.896Z,7.70
2019-04-26T07:18:34.325Z,11.33
2019-04-26T07:23:44.968Z,11.23
2019-04-26T07:29:06.946Z,6.60
2019-04-26T07:34:38.823Z,9.40
2019-04-26T07:40:11.537Z,8.77
2019-04-26T07:45:25.645Z,9.97
2019-04-26T07:51:00.015Z,9.50
2019-04-26T07:55:59.907Z,9.60
2019-04-26T08:01:01.560Z,10.40
2019-04-26T08:06:05.782Z,9.60
2019-04-26T08:11:22.213Z,10.40
2019-04-26T08:16:26.880Z,9.83
2019-04-26T08:21:32.441Z,11.53
2019-04-26T08:26:30.293Z,12.67
2019-04-26T08:31:27.585Z,15.33
2019-04-26T08:36:27.036Z,13.23
2019-04-26T08:41:24.128Z,14.23
2019-04-26T08:46:23.647Z,13.10
2019-04-26T08:51:23.436Z,13.30
2019-04-26T08:56:35.166Z,14.90
2019-04-26T09:01:36.281Z,15.30
2019-04-26T09:06:42.036Z,15.60
2019-04-26T09:11:39.574Z,14.50
2019-04-26T09:16:35.629Z,15.97
2019-04-26T09:21:42.968Z,15.50
2019-04-26T09:26:42.399Z,15.50
2019-04-26T09:31:43.417Z,15.40
2019-04-26T09:36:39.592Z,17.10
2019-04-26T09:41:35.707Z,16.63
2019-04-26T09:46:48.509Z,13.60
2019-04-26T09:51:44.135Z,10.27
2019-04-26T09:56:40.289Z,9.90
2019-04-26T10:01:36.358Z,9.67
2019-04-26T10:06:32.491Z,8.77
2019-04-26T10:11:30.450Z,7.27
2019-04-26T10:16:28.301Z,9.67
2019-04-26T10:21:24.436Z,11.97
2019-04-26T10:26:23.163Z,11.50
2019-04-26T10:31:18.679Z,12.57
2019-04-26T10:36:14.760Z,11.07
2019-04-26T10:41:10.985Z,14.90
2019-04-26T10:46:07.006Z,13.83
2019-04-26T10:51:07.471Z,12.93
2019-04-26T10:56:20.234Z,16.17
2019-04-26T11:01:20.882Z,10.63
2019-04-26T11:06:16.814Z,18.70
2019-04-26T11:11:12.837Z,15.87
2019-04-26T11:16:09.078Z,23.77
2019-04-26T11:21:05.674Z,22.57
2019-04-26T11:26:02.879Z,26.87
2019-04-26T11:30:59.033Z,20.30
2019-04-26T11:35:55.010Z,33.77
2019-04-26T11:41:05.154Z,32.10
2019-04-26T11:45:49.386Z,32.23
2019-04-26T11:50:53.670Z,32.27
2019-04-26T11:55:50.259Z,21.37
2019-04-26T12:00:54.012Z,32.67
2019-04-26T12:05:51.852Z,32.47
2019-04-26T12:10:47.781Z,30.40
2019-04-26T12:15:45.363Z,26.47
2019-04-26T12:20:45.627Z,26.40
2019-04-26T12:25:43.573Z,30.80
2019-04-26T12:30:39.604Z,23.80
2019-04-26T12:35:35.561Z,31.83
2019-04-26T12:40:31.536Z,33.20
2019-04-26T12:45:29.433Z,27.03
2019-04-26T12:50:41.973Z,31.97
2019-04-26T12:55:38.009Z,33.80
2019-04-26T13:00:37.390Z,35.00
2019-04-26T13:05:31.870Z,36.07
2019-04-26T13:10:31.330Z,37.47
2019-04-26T13:15:58.475Z,40.37
2019-04-26T13:21:02.934Z,38.17
2019-04-26T13:25:59.703Z,36.47
2019-04-26T13:30:55.067Z,40.37
2019-04-26T13:36:02.526Z,39.30
2019-04-26T13:40:48.920Z,42.87
2019-04-26T13:45:46.778Z,41.30
2019-04-26T13:50:48.891Z,37.10
2019-04-26T13:55:45.046Z,43.10
2019-04-26T14:00:43.453Z,41.50
2019-04-26T14:05:38.977Z,40.90
2019-04-26T14:10:34.988Z,40.23
2019-04-26T14:15:31.113Z,40.23
2019-04-26T14:20:38.430Z,40.93
2019-04-26T14:25:36.225Z,42.27
2019-04-26T14:30:32.264Z,42.10
2019-04-26T14:35:28.249Z,39.70
2019-04-26T14:40:24.331Z,40.97
2019-04-26T14:45:23.855Z,38.70
2019-04-26T14:50:19.608Z,38.77
2019-04-26T14:55:16.483Z,39.97
2019-04-26T15:00:16.684Z,38.23
2019-04-26T15:05:22.540Z,36.17
2019-04-26T15:10:20.376Z,35.00
2019-04-26T15:15:16.304Z,34.77
2019-04-26T15:20:12.795Z,33.80
2019-04-26T15:25:11.810Z,32.90
2019-04-26T15:30:09.174Z,33.43
2019-04-26T15:35:05.203Z,33.23
2019-04-26T15:40:19.988Z,34.10
2019-04-26T15:45:26.972Z,33.33
2019-04-26T15:55:33.871Z,34.50
2019-04-26T16:00:32.723Z,33.20
2019-04-26T16:05:29.498Z,31.97
2019-04-26T16:10:25.798Z,32.93
2019-04-26T16:15:23.332Z,32.40
2019-04-26T16:20:22.122Z,34.20
2019-04-26T16:25:18.254Z,31.90
2019-04-26T16:30:19.060Z,31.37
2019-04-26T16:35:18.342Z,33.00
2019-04-26T16:40:13.930Z,28.97
2019-04-26T16:45:10.134Z,35.17
2019-04-26T16:50:06.631Z,32.20
2019-04-26T16:55:05.051Z,33.13
2019-04-26T17:00:04.227Z,32.67
2019-04-26T17:05:04.615Z,32.50
2019-04-26T17:09:59.179Z,33.37
2019-04-26T17:14:54.538Z,33.00
2019-04-26T17:19:52.092Z,32.20
2019-04-26T17:24:55.890Z,34.57
2019-04-26T17:29:52.735Z,32.27
2019-04-26T17:34:48.929Z,33.37
2019-04-26T17:39:47.529Z,32.63
2019-04-26T17:44:42.675Z,33.00
2019-04-26T17:49:41.821Z,31.50
2019-04-26T17:54:45.917Z,30.20
2019-04-26T17:59:36.789Z,30.77
2019-04-26T18:04:36.930Z,33.77
2019-04-26T18:09:43.001Z,33.00
2019-04-26T18:14:31.861Z,31.33
2019-04-26T18:19:41.398Z,32.30
2019-04-26T18:24:37.324Z,31.30
2019-04-26T18:29:33.743Z,33.63
2019-04-26T18:34:30.598Z,33.97
2019-04-26T18:39:29.726Z,34.80
2019-04-26T18:44:36.297Z,32.80
2019-04-26T18:49:26.922Z,33.43
2019-04-26T18:54:29.939Z,32.57
2019-04-26T18:59:27.815Z,34.37
2019-04-26T19:04:23.809Z,31.77
2019-04-26T19:09:21.964Z,32.13
2019-04-26T19:14:48.779Z,33.80
2019-04-26T19:19:46.582Z,33.63
2019-04-26T19:24:44.786Z,36.07
2019-04-26T19:29:41.083Z,35.30
2019-04-26T19:34:38.755Z,35.00
2019-04-26T19:39:36.904Z,32.73
2019-04-26T19:44:32.662Z,34.10
2019-04-26T19:49:36.789Z,33.10
2019-04-26T19:54:44.620Z,30.10
2019-04-26T19:59:42.245Z,30.90
2019-04-26T20:04:38.562Z,29.23
2019-04-26T20:09:34.576Z,32.03
2019-04-26T20:14:45.063Z,32.03
2019-04-26T20:19:35.144Z,37.70
2019-04-26T20:24:28.302Z,32.53
2019-04-26T20:29:24.244Z,31.10
2019-04-26T20:34:21.797Z,32.57
2019-04-26T20:39:20.945Z,33.83
2019-04-26T20:44:22.384Z,29.70
2019-04-26T20:49:21.853Z,30.13
2019-04-26T20:54:18.511Z,30.50
2019-04-26T20:59:16.614Z,30.07
2019-04-26T21:04:33.810Z,30.50
2019-04-26T21:09:13.442Z,30.77
2019-04-26T21:14:10.248Z,29.10
2019-04-26T21:19:07.863Z,26.87
2019-04-26T21:24:05.696Z,30.33
2019-04-26T21:29:06.746Z,29.27
2019-04-26T21:34:11.844Z,28.73
2019-04-26T21:39:11.362Z,28.23
2019-04-26T21:44:12.270Z,27.40
2019-04-26T21:49:09.411Z,27.30
2019-04-26T21:54:05.773Z,27.93
2019-04-26T21:59:03.625Z,25.53
2019-04-26T22:04:00.147Z,26.90
2019-04-26T22:08:59.373Z,25.90
2019-04-26T22:14:00.227Z,27.40
2019-04-26T22:19:14.626Z,28.90
2019-04-26T22:24:13.267Z,23.97
2019-04-26T22:29:13.940Z,23.03
2019-04-26T22:34:08.845Z,26.87
2019-04-26T22:39:10.247Z,26.13
2019-04-26T22:44:13.971Z,24.43
2019-04-26T22:49:13.195Z,27.53
2019-04-26T22:54:09.062Z,28.20
2019-04-26T22:59:07.742Z,25.63
2019-04-26T23:04:03.485Z,28.30
2019-04-26T23:08:59.513Z,26.80
2019-04-26T23:14:04.496Z,25.37
2019-04-26T23:19:19.225Z,28.20
2019-04-26T23:24:18.890Z,26.00
2019-04-26T23:29:17.744Z,27.73
2019-04-26T23:34:14.273Z,24.07
2019-04-26T23:39:12.165Z,25.03
2019-04-26T23:44:08.253Z,26.73
2019-04-26T23:49:04.279Z,23.90
2019-04-26T23:54:00.912Z,25.90
2019-04-26T23:58:56.930Z,25.70
